createdAt,value
2019-04-22T00:00:46.532Z,18.98
2019-04-22T00:03:33.903Z,20.68
2019-04-22T00:06:30.797Z,21.75
2019-04-22T00:09:17.413Z,19.07
2019-04-22T00:12:14.574Z,18.45
2019-04-22T00:14:40.587Z,20.05
2019-04-22T00:17:30.164Z,20.88
2019-04-22T00:20:27.722Z,19.92
2019-04-22T00:23:14.100Z,19.98
2019-04-22T00:25:56.070Z,22.93
2019-04-22T00:28:35.112Z,22.50
2019-04-22T00:31:37.596Z,29.20
2019-04-22T00:34:12.975Z,27.05
2019-04-22T00:39:38.400Z,25.57
2019-04-22T00:42:18.172Z,28.73
2019-04-22T00:44:55.878Z,24.07
2019-04-22T00:47:32.433Z,24.67
2019-04-22T00:50:25.536Z,23.98
2019-04-22T00:52:49.047Z,23.00
2019-04-22T00:55:27.332Z,24.85
2019-04-22T00:58:12.277Z,26.40
2019-04-22T01:00:44.401Z,31.68
2019-04-22T01:03:27.988Z,23.60
2019-04-22T01:06:04.151Z,24.75
2019-04-22T01:08:53.857Z,25.02
2019-04-22T01:11:29.717Z,29.35
2019-04-22T01:14:01.008Z,23.57
2019-04-22T01:16:45.792Z,27.87
2019-04-22T01:19:21.793Z,23.73
2019-04-22T01:21:58.187Z,28.20
2019-04-22T01:24:37.109Z,27.70
2019-04-22T01:27:11.581Z,28.60
2019-04-22T01:29:46.377Z,32.13
2019-04-22T01:32:21.322Z,27.67
2019-04-22T01:35:05.843Z,30.37
2019-04-22T01:37:52.036Z,29.80
2019-04-22T01:40:39.324Z,29.40
2019-04-22T01:43:18.630Z,28.67
2019-04-22T01:45:56.209Z,38.63
2019-04-22T01:48:32.546Z,35.68
2019-04-22T01:51:08.270Z,34.65
2019-04-22T01:54:00.220Z,27.10
2019-04-22T01:56:33.026Z,29.75
2019-04-22T01:58:58.947Z,32.15
2019-04-22T02:01:53.111Z,31.07
2019-04-22T02:04:31.832Z,31.45
2019-04-22T02:07:09.644Z,34.90
2019-04-22T02:09:53.703Z,30.77
2019-04-22T02:12:43.342Z,34.73
2019-04-22T02:15:17.022Z,34.00
2019-04-22T02:18:03.263Z,31.17
2019-04-22T02:20:40.299Z,29.67
2019-04-22T02:26:15.815Z,34.15
2019-04-22T02:28:40.041Z,33.75
2019-04-22T02:36:50.849Z,34.58
2019-04-22T02:39:45.297Z,33.05
2019-04-22T02:42:19.563Z,41.85
2019-04-22T02:45:23.110Z,36.03
2019-04-22T02:47:58.517Z,34.80
2019-04-22T02:50:30.607Z,38.35
2019-04-22T02:53:41.844Z,33.95
2019-04-22T02:56:02.134Z,40.03
2019-04-22T02:58:52.695Z,37.30
2019-04-22T03:04:00.913Z,42.88
2019-04-22T03:06:36.662Z,45.70
2019-04-22T03:09:16.419Z,43.60
2019-04-22T03:11:56.671Z,43.87
2019-04-22T03:14:30.158Z,42.43
2019-04-22T03:17:10.930Z,51.18
2019-04-22T03:22:20.961Z,45.28
2019-04-22T03:28:16.167Z,46.13
2019-04-22T03:38:55.647Z,44.98
2019-04-22T03:41:31.206Z,54.40
2019-04-22T03:44:08.242Z,53.05
2019-04-22T03:46:44.285Z,51.58
2019-04-22T03:49:28.906Z,52.10
2019-04-22T03:52:11.210Z,50.05
2019-04-22T03:57:44.771Z,47.97
2019-04-22T03:59:56.689Z,46.02
2019-04-22T04:05:15.701Z,49.33
2019-04-22T04:08:05.698Z,50.23
2019-04-22T04:10:40.109Z,45.12
2019-04-22T04:13:32.159Z,41.80
2019-04-22T04:15:57.611Z,41.35
2019-04-22T04:18:52.600Z,37.85
2019-04-22T04:32:07.255Z,45.60
2019-04-22T04:34:54.065Z,44.42
2019-04-22T04:37:32.800Z,56.28
2019-04-22T04:40:05.804Z,46.42
2019-04-22T04:42:38.568Z,44.95
2019-04-22T04:48:09.614Z,37.83
2019-04-22T04:50:53.683Z,31.68
2019-04-22T04:53:22.910Z,35.98
2019-04-22T04:56:02.503Z,30.43
2019-04-22T04:59:00.453Z,32.20
2019-04-22T05:14:32.312Z,19.67
2019-04-22T05:17:21.145Z,20.37
2019-04-22T05:20:13.486Z,16.27
2019-04-22T05:25:22.233Z,13.43
2019-04-22T05:27:58.992Z,13.75
2019-04-22T05:30:55.697Z,13.15
2019-04-22T05:33:15.365Z,14.00
2019-04-22T05:35:53.582Z,15.40
2019-04-22T05:38:49.446Z,14.63
2019-04-22T05:41:17.937Z,12.37
2019-04-22T05:43:59.239Z,20.08
2019-04-22T05:46:34.524Z,17.15
2019-04-22T05:52:11.101Z,14.28
2019-04-22T05:54:50.473Z,14.23
2019-04-22T05:57:26.018Z,17.23
2019-04-22T06:00:06.409Z,13.72
2019-04-22T06:05:24.717Z,10.65
2019-04-22T06:08:03.706Z,10.90
2019-04-22T06:10:45.355Z,15.30
2019-04-22T06:13:17.701Z,10.63
2019-04-22T06:16:07.319Z,9.78
2019-04-22T06:18:55.226Z,14.40
2019-04-22T06:21:36.020Z,10.37
2019-04-22T06:24:10.874Z,10.40
2019-04-22T06:26:53.848Z,14.68
2019-04-22T06:29:25.390Z,9.35
2019-04-22T06:34:43.344Z,11.30
2019-04-22T06:37:26.109Z,8.95
2019-04-22T06:40:07.186Z,9.40
2019-04-22T06:42:44.098Z,9.78
2019-04-22T06:45:23.489Z,11.48
2019-04-22T06:48:19.195Z,9.28
2019-04-22T06:50:43.458Z,9.40
2019-04-22T06:53:25.088Z,7.93
2019-04-22T06:56:00.482Z,9.78
2019-04-22T06:58:39.503Z,8.98
2019-04-22T07:04:01.516Z,9.45
2019-04-22T07:06:42.137Z,9.55
2019-04-22T07:09:36.651Z,7.20
2019-04-22T07:11:58.890Z,7.78
2019-04-22T07:14:35.605Z,6.72
2019-04-22T07:17:22.183Z,9.25
2019-04-22T07:19:48.660Z,8.68
2019-04-22T07:22:38.965Z,7.17
2019-04-22T07:25:15.987Z,6.40
2019-04-22T07:27:52.636Z,8.18
2019-04-22T07:30:59.115Z,7.55
2019-04-22T07:33:28.382Z,11.10
2019-04-22T07:36:25.735Z,7.92
2019-04-22T07:38:36.241Z,7.62
2019-04-22T07:41:21.837Z,12.18
2019-04-22T07:46:45.118Z,12.40
2019-04-22T07:49:26.595Z,11.68
2019-04-22T07:52:01.393Z,8.98
2019-04-22T07:54:41.660Z,8.25
2019-04-22T07:57:27.833Z,9.75
2019-04-22T08:00:03.123Z,10.08
2019-04-22T08:02:44.160Z,8.60
2019-04-22T08:05:22.468Z,9.65
2019-04-22T08:08:05.400Z,8.83
2019-04-22T08:13:23.421Z,8.60
2019-04-22T08:18:37.471Z,10.08
2019-04-22T08:21:12.399Z,12.82
2019-04-22T08:23:50.830Z,18.52
2019-04-22T08:26:36.385Z,11.73
2019-04-22T08:29:14.534Z,9.35
2019-04-22T08:34:27.470Z,7.37
2019-04-22T08:40:09.531Z,8.88
2019-04-22T08:42:36.567Z,9.13
2019-04-22T08:47:54.816Z,10.58
2019-04-22T08:50:41.263Z,11.20
2019-04-22T08:53:19.936Z,8.40
2019-04-22T08:56:12.584Z,8.78
2019-04-22T08:58:31.735Z,8.63
2019-04-22T09:01:18.876Z,10.15
2019-04-22T09:03:58.028Z,9.03
2019-04-22T09:06:49.464Z,9.55
2019-04-22T09:09:11.569Z,8.73
2019-04-22T09:11:54.641Z,8.63
2019-04-22T09:14:40.576Z,9.48
2019-04-22T09:17:17.543Z,8.63
2019-04-22T09:19:56.623Z,9.53
2019-04-22T09:22:48.748Z,8.25
2019-04-22T09:25:06.684Z,8.28
2019-04-22T09:27:49.748Z,12.00
2019-04-22T09:30:34.367Z,11.55
2019-04-22T09:33:14.202Z,8.60
2019-04-22T09:35:51.668Z,12.05
2019-04-22T09:41:06.528Z,7.67
2019-04-22T09:46:43.920Z,6.42
2019-04-22T09:49:23.209Z,7.92
2019-04-22T09:51:58.912Z,9.00
2019-04-22T09:57:15.540Z,7.78
2019-04-22T09:59:57.882Z,7.37
2019-04-22T10:05:15.371Z,7.85
2019-04-22T10:07:54.823Z,7.90
2019-04-22T10:10:28.175Z,12.78
2019-04-22T10:13:12.298Z,9.13
2019-04-22T10:15:54.406Z,7.70
2019-04-22T10:18:49.026Z,9.53
2019-04-22T10:21:54.564Z,9.23
2019-04-22T10:24:53.580Z,9.50
2019-04-22T10:28:09.217Z,8.20
2019-04-22T10:30:57.528Z,9.28
2019-04-22T10:33:26.865Z,8.05
2019-04-22T10:35:45.644Z,9.08
2019-04-22T10:38:24.104Z,9.08
2019-04-22T10:41:02.736Z,8.93
2019-04-22T10:43:41.292Z,8.80
2019-04-22T10:46:19.869Z,12.93
2019-04-22T10:48:57.983Z,9.50
2019-04-22T10:51:37.344Z,8.60
2019-04-22T10:54:15.686Z,10.48
2019-04-22T10:56:53.274Z,64.53
2019-04-22T10:59:30.688Z,10.40
2019-04-22T11:02:07.885Z,10.63
2019-04-22T11:04:46.058Z,15.55
2019-04-22T11:07:31.088Z,11.30
2019-04-22T11:10:24.169Z,9.73
2019-04-22T11:12:45.020Z,11.30
2019-04-22T11:15:24.334Z,10.98
2019-04-22T11:18:02.296Z,9.33
2019-04-22T11:20:39.948Z,16.73
2019-04-22T11:23:18.630Z,13.75
2019-04-22T11:25:57.523Z,12.60
2019-04-22T11:28:35.848Z,12.13
2019-04-22T11:31:14.673Z,11.43
2019-04-22T11:33:52.506Z,12.40
2019-04-22T11:36:30.854Z,10.70
2019-04-22T11:39:10.882Z,9.60
2019-04-22T11:41:47.745Z,9.95
2019-04-22T11:44:25.639Z,12.50
2019-04-22T11:47:03.374Z,10.20
2019-04-22T11:49:41.736Z,9.55
2019-04-22T11:52:20.484Z,10.58
2019-04-22T11:54:58.894Z,8.98
2019-04-22T11:57:37.208Z,9.85
2019-04-22T12:00:20.823Z,10.45
2019-04-22T12:02:58.803Z,13.65
2019-04-22T12:05:41.780Z,9.53
2019-04-22T12:08:20.720Z,12.68
2019-04-22T12:11:00.891Z,12.98
2019-04-22T12:13:37.942Z,13.03
2019-04-22T12:16:17.101Z,9.13
2019-04-22T12:18:55.496Z,11.85
2019-04-22T12:21:33.125Z,10.58
2019-04-22T12:24:11.020Z,8.60
2019-04-22T12:26:48.666Z,10.32
2019-04-22T12:29:26.924Z,8.05
2019-04-22T12:32:05.341Z,7.30
2019-04-22T12:34:43.683Z,8.10
2019-04-22T12:37:29.011Z,6.60
2019-04-22T12:40:02.526Z,9.93
2019-04-22T12:42:41.633Z,14.55
2019-04-22T12:45:22.469Z,9.73
2019-04-22T12:48:00.416Z,10.43
2019-04-22T12:50:41.878Z,12.25
2019-04-22T12:53:20.557Z,20.90
2019-04-22T12:55:57.433Z,7.78
2019-04-22T12:58:35.787Z,12.03
2019-04-22T13:01:14.932Z,9.80
2019-04-22T13:03:57.414Z,12.73
2019-04-22T13:06:33.504Z,22.02
2019-04-22T13:09:12.518Z,19.32
2019-04-22T13:11:51.017Z,11.25
2019-04-22T13:14:28.342Z,14.25
2019-04-22T13:17:06.282Z,10.65
2019-04-22T13:19:44.529Z,12.95
2019-04-22T13:22:23.138Z,10.98
2019-04-22T13:25:07.891Z,14.03
2019-04-22T13:27:46.782Z,9.48
2019-04-22T13:30:26.173Z,11.08
2019-04-22T13:33:05.142Z,11.70
2019-04-22T13:35:43.873Z,10.18
2019-04-22T13:38:33.315Z,14.03
2019-04-22T13:43:50.996Z,10.78
2019-04-22T13:46:31.792Z,11.35
2019-04-22T13:49:40.561Z,11.85
2019-04-22T13:52:29.299Z,9.55
2019-04-22T13:53:53.453Z,13.18
2019-04-22T13:54:57.916Z,11.70
2019-04-22T13:57:24.890Z,8.83
2019-04-22T13:59:53.493Z,8.83
2019-04-22T14:02:50.686Z,9.08
2019-04-22T14:05:28.968Z,8.65
2019-04-22T14:08:08.737Z,9.73
2019-04-22T14:10:45.900Z,8.83
2019-04-22T14:13:23.880Z,10.18
2019-04-22T14:16:01.896Z,10.35
2019-04-22T14:18:39.477Z,12.98
2019-04-22T14:21:17.075Z,10.20
2019-04-22T14:23:56.306Z,9.18
2019-04-22T14:26:44.237Z,10.23
2019-04-22T14:29:13.592Z,11.55
2019-04-22T14:32:04.237Z,9.08
2019-04-22T14:34:32.139Z,8.78
2019-04-22T14:37:09.989Z,10.03
2019-04-22T14:39:51.569Z,11.10
2019-04-22T14:42:53.464Z,11.78
2019-04-22T14:45:58.435Z,8.73
2019-04-22T14:48:10.969Z,9.97
2019-04-22T14:50:46.666Z,13.65
2019-04-22T14:53:29.057Z,12.07
2019-04-22T14:55:46.573Z,11.00
2019-04-22T14:58:24.663Z,9.70
2019-04-22T15:01:03.315Z,9.60
2019-04-22T15:03:43.996Z,10.78
2019-04-22T15:06:22.180Z,10.38
2019-04-22T15:08:59.719Z,11.57
2019-04-22T15:11:52.483Z,9.00
2019-04-22T15:14:17.228Z,10.23
2019-04-22T15:17:18.597Z,10.45
2019-04-22T15:22:39.243Z,11.25
2019-04-22T15:25:16.762Z,9.48
2019-04-22T15:27:55.296Z,7.87
2019-04-22T15:30:45.608Z,9.25
2019-04-22T15:33:23.526Z,7.73
2019-04-22T15:36:01.422Z,9.08
2019-04-22T15:38:40.526Z,7.87
2019-04-22T15:41:18.786Z,7.92
2019-04-22T15:43:57.456Z,10.43
2019-04-22T15:46:35.323Z,8.08
2019-04-22T15:49:13.793Z,7.17
2019-04-22T15:51:53.234Z,4.58
2019-04-22T15:54:31.589Z,10.88
2019-04-22T15:57:10.766Z,5.25
2019-04-22T16:00:02.296Z,6.30
2019-04-22T16:02:27.897Z,8.43
2019-04-22T16:05:06.736Z,7.37
2019-04-22T16:07:45.739Z,11.10
2019-04-22T16:10:23.971Z,8.08
2019-04-22T16:13:09.409Z,6.50
2019-04-22T16:15:42.528Z,18.55
2019-04-22T16:18:22.475Z,8.18
2019-04-22T16:21:00.566Z,4.95
2019-04-22T16:23:56.425Z,5.72
2019-04-22T16:26:44.557Z,5.58
2019-04-22T16:29:23.320Z,5.67
2019-04-22T16:32:01.276Z,3.75
2019-04-22T16:34:40.159Z,3.75
2019-04-22T16:37:18.890Z,8.50
2019-04-22T16:39:56.673Z,4.85
2019-04-22T16:42:42.818Z,7.47
2019-04-22T16:45:15.731Z,3.98
2019-04-22T16:47:53.784Z,3.80
2019-04-22T16:50:32.744Z,3.85
2019-04-22T16:53:10.343Z,7.60
2019-04-22T16:55:48.905Z,3.77
2019-04-22T16:58:26.774Z,7.83
2019-04-22T17:01:07.034Z,5.40
2019-04-22T17:04:10.595Z,4.72
2019-04-22T17:07:03.657Z,3.92
2019-04-22T17:09:43.791Z,4.78
2019-04-22T17:12:21.823Z,5.70
2019-04-22T17:15:04.353Z,4.83
2019-04-22T17:17:41.254Z,7.33
2019-04-22T17:20:18.797Z,8.45
2019-04-22T17:22:56.067Z,5.72
2019-04-22T17:25:36.231Z,5.55
2019-04-22T17:28:15.051Z,3.80
2019-04-22T17:30:53.980Z,3.98
2019-04-22T17:33:32.797Z,6.03
2019-04-22T17:36:12.018Z,5.53
2019-04-22T17:38:58.379Z,8.55
2019-04-22T17:41:50.499Z,6.55
2019-04-22T17:44:41.423Z,13.88
2019-04-22T17:47:23.418Z,4.70
2019-04-22T17:50:13.225Z,4.40
2019-04-22T17:53:03.609Z,9.48
2019-04-22T17:55:36.485Z,6.30
2019-04-22T17:58:14.647Z,5.75
2019-04-22T18:00:51.978Z,11.22
2019-04-22T18:03:22.661Z,8.48
2019-04-22T18:05:57.424Z,10.18
2019-04-22T18:08:45.267Z,10.00
2019-04-22T18:11:33.575Z,9.23
2019-04-22T18:14:25.935Z,10.15
2019-04-22T18:17:05.772Z,7.92
2019-04-22T18:19:36.363Z,8.65
2019-04-22T18:22:10.901Z,7.95
2019-04-22T18:24:55.965Z,7.90
2019-04-22T18:30:12.731Z,11.03
2019-04-22T18:32:50.584Z,9.28
2019-04-22T18:35:32.413Z,8.15
2019-04-22T18:38:21.868Z,8.80
2019-04-22T18:40:50.629Z,11.43
2019-04-22T18:43:32.951Z,10.60
2019-04-22T18:46:30.114Z,11.40
2019-04-22T18:48:54.221Z,9.63
2019-04-22T18:51:40.266Z,10.85
2019-04-22T18:54:22.703Z,11.15
2019-04-22T18:57:07.421Z,11.17
2019-04-22T18:59:32.695Z,9.68
2019-04-22T19:02:13.940Z,13.72
2019-04-22T19:04:59.968Z,12.37
2019-04-22T19:07:52.939Z,13.55
2019-04-22T19:10:36.263Z,11.33
2019-04-22T19:13:37.649Z,10.93
2019-04-22T19:15:53.887Z,10.65
2019-04-22T19:21:13.159Z,15.32
2019-04-22T19:23:45.103Z,14.43
2019-04-22T19:26:38.429Z,11.93
2019-04-22T19:29:05.624Z,12.55
2019-04-22T19:31:49.671Z,13.50
2019-04-22T19:34:20.466Z,13.48
2019-04-22T19:37:05.531Z,12.82
2019-04-22T19:39:41.084Z,21.57
2019-04-22T19:42:30.796Z,13.50
2019-04-22T19:45:02.597Z,17.75
2019-04-22T19:47:43.575Z,14.95
2019-04-22T19:50:23.048Z,21.15
2019-04-22T19:53:01.263Z,14.85
2019-04-22T19:55:41.168Z,17.48
2019-04-22T19:58:18.546Z,19.30
2019-04-22T20:01:08.745Z,15.72
2019-04-22T20:04:28.271Z,17.65
2019-04-22T20:07:08.417Z,15.00
2019-04-22T20:09:52.179Z,19.85
2019-04-22T20:12:36.677Z,18.30
2019-04-22T20:15:11.306Z,17.77
2019-04-22T20:18:11.407Z,18.12
2019-04-22T20:20:32.954Z,19.42
2019-04-22T20:23:08.304Z,18.77
2019-04-22T20:25:41.743Z,20.70
2019-04-22T20:28:35.804Z,20.40
2019-04-22T20:31:08.400Z,17.92
2019-04-22T20:33:50.055Z,19.77
2019-04-22T20:36:44.936Z,19.10
2019-04-22T20:38:58.787Z,24.70
2019-04-22T20:41:36.734Z,17.65
2019-04-22T20:44:32.306Z,17.90
2019-04-22T20:47:00.624Z,21.12
2019-04-22T20:49:44.475Z,24.72
2019-04-22T20:52:26.382Z,19.23
2019-04-22T20:54:55.790Z,21.23
2019-04-22T20:57:40.261Z,19.60
2019-04-22T21:00:18.887Z,17.67
2019-04-22T21:02:48.826Z,16.60
2019-04-22T21:05:27.671Z,20.80
2019-04-22T21:08:20.377Z,23.50
2019-04-22T21:10:47.712Z,17.60
2019-04-22T21:13:28.045Z,21.42
2019-04-22T21:16:18.363Z,21.17
2019-04-22T21:18:46.100Z,21.17
2019-04-22T21:21:31.711Z,25.20
2019-04-22T21:24:04.977Z,29.18
2019-04-22T21:26:48.187Z,24.30
2019-04-22T21:29:26.331Z,28.00
2019-04-22T21:32:12.169Z,25.60
2019-04-22T21:34:52.749Z,23.67
2019-04-22T21:37:34.669Z,26.25
2019-04-22T21:40:00.420Z,23.90
2019-04-22T21:42:47.220Z,25.43
2019-04-22T21:45:18.709Z,26.30
2019-04-22T21:48:13.799Z,21.23
2019-04-22T21:50:48.580Z,27.17
2019-04-22T21:53:32.956Z,23.15
2019-04-22T21:56:11.629Z,20.90
2019-04-22T21:58:50.605Z,22.90
2019-04-22T22:01:41.449Z,30.48
2019-04-22T22:04:17.343Z,27.22
2019-04-22T22:06:41.249Z,28.42
2019-04-22T22:09:33.191Z,25.12
2019-04-22T22:12:08.550Z,24.87
2019-04-22T22:14:50.045Z,22.67
2019-04-22T22:17:27.256Z,25.65
2019-04-22T22:20:07.448Z,26.90
2019-04-22T22:22:55.009Z,25.15
2019-04-22T22:25:28.507Z,24.80
2019-04-22T22:28:21.903Z,28.12
2019-04-22T22:30:56.732Z,24.90
2019-04-22T22:33:28.586Z,25.08
2019-04-22T22:36:05.021Z,24.65
2019-04-22T22:38:43.744Z,26.35
2019-04-22T22:41:05.821Z,26.05
2019-04-22T22:43:51.271Z,28.23
2019-04-22T22:46:39.037Z,24.60
2019-04-22T22:49:28.681Z,28.27
2019-04-22T22:52:34.523Z,25.72
2019-04-22T22:54:57.535Z,25.25
2019-04-22T22:57:50.234Z,27.17
2019-04-22T23:00:11.529Z,28.00
2019-04-22T23:03:14.861Z,22.00
2019-04-22T23:05:41.709Z,28.35
2019-04-22T23:08:16.609Z,25.75
2019-04-22T23:11:01.016Z,28.32
2019-04-22T23:13:31.446Z,28.55
2019-04-22T23:16:00.873Z,29.27
2019-04-22T23:18:29.930Z,29.37
2019-04-22T23:21:15.979Z,26.97
2019-04-22T23:24:05.675Z,26.87
2019-04-22T23:26:51.957Z,29.32
2019-04-22T23:29:49.671Z,27.17
2019-04-22T23:32:31.972Z,25.82
2019-04-22T23:35:18.023Z,26.17
2019-04-22T23:37:57.268Z,27.45
2019-04-22T23:40:45.590Z,29.45
2019-04-22T23:43:28.940Z,30.08
2019-04-22T23:46:02.402Z,25.82
2019-04-22T23:48:33.515Z,24.85
2019-04-22T23:51:22.564Z,28.00
2019-04-22T23:54:11.103Z,24.80
2019-04-22T23:56:35.192Z,27.75
2019-04-22T23:59:38.268Z,32.25
